Dobrodošli na spletni strani vremenske postaje Senovo. Vse informacije so informativnega značaja, saj vremenska postaja ni del državne mreže meteoroloških postaj. AKTUALNIH OBVESTIL NI.


Sneg/Led Od: 22-02-2018 00:00 Do: 23-02-2018 23:59 Opozorilo za: Sneg/Led Stopnja: Rumena info button
Veter Od: 22-02-2018 00:00 Do: 23:59 Opozorilo za: Veter Stopnja: Rumena info button

Pogled proti Armezu več informacij Pogled proti Armezu


Lisca več informacij Lisca


Radar strel več informacij blitzortung!


opozorilo za sneg/led več informacij rain snow radar


Obiščite še:

Template documentation
and downloads

And another site



Weather Underground, zgodovina - Tekstovno

Dnevni povzetek za December 13, 2017 Enote:  Metrično    Angleško   Obe
« Predhodni Dan
Naslednji Dan »
Dnevni Tedenski Mesečni Letni Po meri
  Višja: Nižja: Povprečje:
Temperatura: -17.8 °C -17.3 °C -16.2 °C
Točka rosišča: -17.8 °C -17.9 °C -17.1 °C
Vlažnost: Humidity % 83 % 89 %
Hitrost vetra: 0 km/h 0 km/h 4 km/h
Sunki vetra: 0 km/h - -
Veter:- - SSE
Zračni tlak: 0 hPa 34164.7 hPa -
Padavine: 251.46 mm    
Historical Graphs
 
 
Tabelarni podarki za December 13, 2017
Čas Temperatura Točka rosišča Zračni tlak Veter Hitrost vetra Sunki vetra Vlažnost Intenziteta padavin (urna)
-17.8 °C -17.8 °C 0 hPa Calm     Humidity % 0 mm
00:02 -13.9 °C -14.5 °C 34269.7 hPa Calm     93 % 7.62 mm
00:07 -13.9 °C -14.5 °C 34269.7 hPa SSE 1.6 km/h 8.9 km/h 93 % 7.62 mm
00:12 -13.8 °C -14.4 °C 34269.7 hPa ESE 8.2 km/h 19.6 km/h 93 % 12.7 mm
00:17 -13.7 °C -14.2 °C 34303.6 hPa ESE 12.2 km/h 20.3 km/h 94 % 12.7 mm
00:27 -13.7 °C -14.2 °C 34303.6 hPa East 16.3 km/h 27.7 km/h 94 % 12.7 mm
00:32 -13.9 °C -14.5 °C 34337.4 hPa ENE 17.4 km/h 19.6 km/h 93 % 12.7 mm
00:37 -14 °C -14.6 °C 34337.4 hPa ENE 17.9 km/h 22 km/h 93 % 12.7 mm
00:42 -14.1 °C -14.6 °C 34337.4 hPa ENE 15.3 km/h 22 km/h 93 % 20.32 mm
00:47 -14.2 °C -14.8 °C 34337.4 hPa NE 10.6 km/h 25.4 km/h 93 % 20.32 mm
00:52 -14.4 °C -15.1 °C 34337.4 hPa NE 12.7 km/h 28.5 km/h 92 % 25.4 mm
00:57 -14.6 °C -15.2 °C 34337.4 hPa NE 15.6 km/h 37.5 km/h 92 % 25.4 mm
01:02 -14.7 °C -15.4 °C 34371.3 hPa NE 15 km/h 37.5 km/h 92 % 25.4 mm
01:07 -14.8 °C -15.6 °C 34371.3 hPa NE 13.2 km/h 34.8 km/h 91 % 25.4 mm
01:12 -14.9 °C -15.8 °C 34371.3 hPa NE 14.8 km/h 34.8 km/h 90 % 20.32 mm
01:17 -15.1 °C -15.9 °C 34337.4 hPa NE 15.6 km/h 34.1 km/h 90 % 20.32 mm
01:22 -15.1 °C -15.9 °C 34337.4 hPa NE 15 km/h 34.1 km/h 90 % 20.32 mm
01:27 -15.2 °C -16.2 °C 34337.4 hPa NE 15.8 km/h 31.4 km/h 89 % 12.7 mm
01:32 -15.3 °C -16.3 °C 34371.3 hPa NE 12.7 km/h 22 km/h 88 % 25.4 mm
01:37 -15.4 °C -16.4 °C 34371.3 hPa ENE 11.6 km/h 22.5 km/h 88 % 33.02 mm
01:42 -15.5 °C -16.5 °C 34371.3 hPa ENE 14.5 km/h 38.3 km/h 88 % 25.4 mm
01:47 -15.6 °C -16.6 °C 34337.4 hPa East 14.8 km/h 38.3 km/h 87 % 33.02 mm
01:52 -15.7 °C -16.8 °C 34337.4 hPa ENE 17.9 km/h 45.9 km/h 87 % 33.02 mm
01:57 -15.7 °C -16.8 °C 34337.4 hPa ENE 22.9 km/h 45.9 km/h 87 % 33.02 mm
02:02 -15.8 °C -16.9 °C 34371.3 hPa ENE 20.8 km/h 45.9 km/h 87 % 45.72 mm
02:07 -15.8 °C -16.9 °C 34371.3 hPa East 17.9 km/h 37 km/h 87 % 50.8 mm
02:12 -15.9 °C -17 °C 34371.3 hPa ENE 18.7 km/h 37.5 km/h 87 % 50.8 mm
02:17 -15.9 °C -17.1 °C 34405.1 hPa ENE 21.7 km/h 44.6 km/h 86 % 50.8 mm
02:22 -15.9 °C -17.1 °C 34405.1 hPa East 24.1 km/h 44.6 km/h 86 % 50.8 mm
02:27 -15.9 °C -17.1 °C 34405.1 hPa ENE 23 km/h 39.9 km/h 86 % 50.8 mm
02:32 -15.9 °C -17.1 °C 34405.1 hPa East 21.6 km/h 39.9 km/h 86 % 45.72 mm
02:37 -15.9 °C -17.1 °C 34405.1 hPa East 20.3 km/h 41.2 km/h 86 % 45.72 mm
02:47 -15.9 °C -17.1 °C 34405.1 hPa East 23 km/h 57.3 km/h 86 % 38.1 mm
02:52 -16 °C -17.2 °C 34405.1 hPa East 24.1 km/h 57.3 km/h 86 % 38.1 mm
02:57 -16 °C -17.2 °C 34405.1 hPa East 22.9 km/h 37.5 km/h 86 % 38.1 mm
03:02 -16.1 °C -17.2 °C 34405.1 hPa East 18.8 km/h 33.6 km/h 86 % 38.1 mm
03:12 -16.1 °C -17.3 °C 34405.1 hPa ESE 10.3 km/h 22 km/h 86 % 33.02 mm
03:17 -16.1 °C -17.3 °C 34428.8 hPa SE 10.9 km/h 22.5 km/h 86 % 33.02 mm
03:22 -16.2 °C -17.3 °C 34428.8 hPa ESE 11.6 km/h 22.5 km/h 86 % 33.02 mm
03:27 -16.2 °C -17.3 °C 34428.8 hPa ESE 7.2 km/h 15 km/h 86 % 38.1 mm
03:32 -16.2 °C -17.4 °C 34428.8 hPa SE 6.3 km/h 11.1 km/h 86 % 38.1 mm
03:37 -16.2 °C -17.4 °C 34428.8 hPa SE 8.5 km/h 15 km/h 86 % 38.1 mm
03:42 -16.3 °C -17.4 °C 34428.8 hPa SE 8 km/h 15 km/h 86 % 38.1 mm
03:47 -16.3 °C -17.4 °C 34428.8 hPa SSE 7.2 km/h 15.6 km/h 86 % 38.1 mm
03:52 -16.3 °C -17.5 °C 34428.8 hPa SSE 7.7 km/h 15.6 km/h 86 % 38.1 mm
03:57 -16.4 °C -17.6 °C 34428.8 hPa South 8 km/h 14 km/h 86 % 38.1 mm
04:02 -16.4 °C -17.6 °C 34428.8 hPa South 8.2 km/h 14.5 km/h 86 % 45.72 mm
04:07 -16.5 °C -17.7 °C 34428.8 hPa South 8.9 km/h 14.5 km/h 86 % 45.72 mm
04:13 -16.5 °C -17.7 °C 34428.8 hPa South 8.2 km/h 16.3 km/h 86 % 45.72 mm
04:18 -16.6 °C -17.7 °C 34405.1 hPa South 7.7 km/h 16.3 km/h 86 % 50.8 mm
04:22 -16.6 °C -17.8 °C 34405.1 hPa SSE 8 km/h 16.3 km/h 86 % 50.8 mm
04:23 -16.6 °C -17.8 °C 34405.1 hPa South 7.2 km/h 16.3 km/h 86 % 45.72 mm
04:28 -16.7 °C -17.8 °C 34405.1 hPa South 5.6 km/h 16.3 km/h 86 % 50.8 mm
04:33 -16.7 °C -17.7 °C 34405.1 hPa South 6.3 km/h 11.1 km/h 87 % 50.8 mm
04:38 -16.7 °C -17.7 °C 34405.1 hPa South 7.2 km/h 11.1 km/h 87 % 45.72 mm
04:43 -16.7 °C -17.8 °C 34428.8 hPa South 6.8 km/h 9.8 km/h 87 % 50.8 mm
04:48 -16.7 °C -17.8 °C 34428.8 hPa South 5.6 km/h 9.8 km/h 87 % 45.72 mm
04:53 -16.7 °C -17.8 °C 34428.8 hPa South 6 km/h 11.1 km/h 87 % 45.72 mm
04:58 -16.7 °C -17.8 °C 34405.1 hPa South 6.3 km/h 11.1 km/h 87 % 38.1 mm
05:03 -16.7 °C -17.7 °C 34405.1 hPa South 5.5 km/h 9.8 km/h 88 % 25.4 mm
05:08 -16.7 °C -17.7 °C 34405.1 hPa South 5.1 km/h 9.3 km/h 88 % 25.4 mm
05:13 -16.7 °C -17.7 °C 34428.8 hPa South 7.6 km/h 15.6 km/h 88 % 25.4 mm
05:18 -16.7 °C -17.7 °C 34428.8 hPa South 8 km/h 15.6 km/h 88 % 25.4 mm
05:23 -16.7 °C -17.7 °C 34428.8 hPa SSE 6.3 km/h 10.3 km/h 88 % 25.4 mm
05:33 -16.7 °C -17.7 °C 34428.8 hPa SE 3.1 km/h 6.9 km/h 88 % 20.32 mm
05:38 -16.7 °C -17.7 °C 34428.8 hPa South 1.8 km/h 6.4 km/h 88 % 20.32 mm
05:43 -16.7 °C -17.7 °C 34428.8 hPa South 3.4 km/h 8.9 km/h 88 % 12.7 mm
05:48 -16.7 °C -17.7 °C 34428.8 hPa South 5.1 km/h 8.9 km/h 88 % 12.7 mm
05:53 -16.7 °C -17.6 °C 34428.8 hPa SSE 2.9 km/h 8.9 km/h 89 % 12.7 mm
05:58 -16.7 °C -17.6 °C 34476.3 hPa SE 3.1 km/h 8.9 km/h 89 % 20.32 mm
06:03 -16.7 °C -17.7 °C 34476.3 hPa SE 4.2 km/h 9.8 km/h 88 % 20.32 mm
06:08 -16.7 °C -17.7 °C 34476.3 hPa SE 3.4 km/h 9.8 km/h 88 % 20.32 mm
06:13 -16.7 °C -17.6 °C 34476.3 hPa SE 3.4 km/h 8.9 km/h 89 % 12.7 mm
06:18 -16.7 °C -17.6 °C 34476.3 hPa SE 2.6 km/h 8 km/h 89 % 12.7 mm
06:23 -16.7 °C -17.6 °C 34476.3 hPa SE 4.3 km/h 9.3 km/h 89 % 12.7 mm
06:28 -16.6 °C -17.5 °C 34476.3 hPa SSE 4.7 km/h 9.3 km/h 89 % 12.7 mm
06:33 -16.7 °C -17.6 °C 34476.3 hPa East 2.1 km/h 8 km/h 89 % 7.62 mm
06:38 -16.7 °C -17.6 °C 34476.3 hPa NE 0.5 km/h 5.6 km/h 89 % 7.62 mm
06:44 -16.6 °C -17.5 °C 34496.6 hPa South 1 km/h 6.4 km/h 89 % 7.62 mm
06:49 -16.7 °C -17.6 °C 34496.6 hPa SSW 2.1 km/h 6.9 km/h 89 % 7.62 mm
06:54 -16.7 °C -17.6 °C 34496.6 hPa SSW 2.9 km/h 6.9 km/h 89 % 7.62 mm
06:59 -16.7 °C -17.6 °C 34496.6 hPa SW 1.6 km/h 6.9 km/h 89 % 7.62 mm
07:04 -16.7 °C -17.6 °C 34496.6 hPa North 0.3 km/h   89 % 7.62 mm
07:09 -16.7 °C -17.6 °C 34496.6 hPa Calm     89 % 7.62 mm
07:14 -16.7 °C -17.4 °C 34496.6 hPa Calm     90 % 7.62 mm
07:19 -16.7 °C -17.4 °C 34496.6 hPa WSW 1.6 km/h 10.3 km/h 90 % 7.62 mm
07:24 -16.7 °C -17.6 °C 34496.6 hPa WSW 3.7 km/h 10.3 km/h 90 % 7.62 mm
07:29 -16.7 °C -17.6 °C 34496.6 hPa WSW 2.3 km/h 8.9 km/h 90 % 7.62 mm
07:34 -16.7 °C -17.6 °C 34496.6 hPa WNW 0.5 km/h 5.6 km/h 90 % 7.62 mm
07:39 -16.7 °C -17.6 °C 34496.6 hPa Calm     90 % 7.62 mm
07:44 -16.7 °C -17.6 °C 34496.6 hPa Calm     90 % 7.62 mm
07:49 -16.7 °C -17.4 °C 34496.6 hPa Calm     91 % 7.62 mm
07:54 -16.7 °C -17.4 °C 34496.6 hPa Calm     91 % 7.62 mm
07:59 -16.7 °C -17.4 °C 34476.3 hPa WNW 0.8 km/h 6.4 km/h 91 % 0 mm
08:04 -16.7 °C -17.4 °C 34476.3 hPa West 2.1 km/h 6.9 km/h 91 % 7.62 mm
08:09 -16.7 °C -17.4 °C 34476.3 hPa West 1.3 km/h 6.9 km/h 91 % 7.62 mm
08:15 -16.7 °C -17.4 °C 34476.3 hPa Calm     91 % 7.62 mm
08:20 -16.7 °C -17.4 °C 34476.3 hPa Calm     91 % 7.62 mm
08:25 -16.7 °C -17.4 °C 34476.3 hPa Calm   2.3 km/h 91 % 7.62 mm
08:30 -16.7 °C -17.4 °C 34496.6 hPa SSW 0.8 km/h 5.6 km/h 91 % 7.62 mm
08:35 -16.7 °C -17.4 °C 34496.6 hPa SSW 0.8 km/h 5.6 km/h 91 % 7.62 mm
08:40 -16.7 °C -17.4 °C 34496.6 hPa Calm     91 % 7.62 mm
08:45 -16.7 °C -17.4 °C 34496.6 hPa Calm     91 % 7.62 mm
08:55 -16.7 °C -17.4 °C 34496.6 hPa Calm     91 % 7.62 mm
09:00 -16.7 °C -17.4 °C 34496.6 hPa Calm     91 % 7.62 mm
09:05 -16.7 °C -17.4 °C 34496.6 hPa Calm     91 % 0 mm
09:10 -16.6 °C -17.3 °C 34496.6 hPa Calm     92 % 0 mm
09:15 -16.6 °C -17.3 °C 34496.6 hPa Calm     92 % 0 mm
09:20 -16.6 °C -17.2 °C 34496.6 hPa Calm     92 % 0 mm
09:25 -16.6 °C -17.2 °C 34496.6 hPa NW 1.6 km/h 7.6 km/h 92 % 0 mm
09:30 -16.6 °C -17.2 °C 34496.6 hPa NW 1.8 km/h 7.6 km/h 92 % 0 mm
09:35 -16.5 °C -17.2 °C 34496.6 hPa Calm   2.9 km/h 92 % 0 mm
09:40 -16.5 °C -17.2 °C 34496.6 hPa Calm     92 % 0 mm
09:45 -16.4 °C -17.1 °C 34496.6 hPa ENE 0.8 km/h 6.4 km/h 92 % 0 mm
09:50 -16.4 °C -17.1 °C 34496.6 hPa ENE 0.5 km/h 6.4 km/h 92 % 0 mm
09:55 -16.4 °C -17.1 °C 34496.6 hPa WSW 0.3 km/h 4.2 km/h 92 % 0 mm
10:00 -16.3 °C -16.9 °C 34533.8 hPa WSW 0.3 km/h 4.2 km/h 93 % 0 mm
10:06 -16.3 °C -16.8 °C 34533.8 hPa WSW 0.8 km/h 5.1 km/h 93 % 0 mm
10:07 -16.3 °C -16.8 °C 34533.8 hPa WSW 0.8 km/h 5.1 km/h 93 % 0 mm
10:12 -16.3 °C -16.8 °C 34533.8 hPa WNW 0.8 km/h 5.1 km/h 93 % 0 mm
10:23 -16.2 °C -16.8 °C 34496.6 hPa NNW 0.5 km/h 2.9 km/h 93 % 0 mm
10:28 -16.1 °C -16.7 °C 34496.6 hPa Calm     93 % 0 mm
10:32 -16.1 °C -16.6 °C 34496.6 hPa Calm     93 % 0 mm
10:37 -15.9 °C -16.5 °C 34496.6 hPa Calm   2.3 km/h 93 % 0 mm
10:42 -15.9 °C -16.5 °C 34476.3 hPa Calm   2.3 km/h 93 % 0 mm
10:48 -15.9 °C -16.4 °C 34476.3 hPa SW 0.5 km/h 4.2 km/h 93 % 0 mm
10:52 -15.8 °C -16.4 °C 34476.3 hPa SW 1.8 km/h 9.3 km/h 93 % 0 mm
10:57 -15.8 °C -16.3 °C 34496.6 hPa SSW 4.2 km/h 9.3 km/h 93 % 0 mm
11:02 -15.7 °C -16.3 °C 34496.6 hPa SSW 6 km/h 8 km/h 93 % 0 mm
11:07 -15.7 °C -16.3 °C 34496.6 hPa SSW 5 km/h 7.6 km/h 93 % 0 mm
11:13 -15.7 °C -16.2 °C 34496.6 hPa SSW 5 km/h 8.9 km/h 93 % 0 mm
11:17 -15.6 °C -16.2 °C 34496.6 hPa SSW 6.3 km/h 9.3 km/h 93 % 0 mm
11:22 -15.5 °C -16.1 °C 34496.6 hPa SSW 6.3 km/h 9.3 km/h 93 % 0 mm
11:28 -15.5 °C -16.1 °C 34496.6 hPa SSW 5.5 km/h 11.1 km/h 93 % 0 mm
11:33 -15.4 °C -16 °C 34496.6 hPa South 6.9 km/h 11.1 km/h 93 % 0 mm
11:38 -15.4 °C -16 °C 34496.6 hPa South 7.6 km/h 11.1 km/h 93 % 0 mm
11:43 -15.4 °C -16 °C 34428.8 hPa South 6.3 km/h 9.3 km/h 93 % 0 mm
11:48 -15.4 °C -16 °C 34428.8 hPa South 6.8 km/h 10.3 km/h 93 % 0 mm
11:52 -15.4 °C -15.9 °C 34428.8 hPa South 7.2 km/h 14 km/h 93 % 0 mm
11:57 -15.4 °C -15.9 °C 34476.3 hPa SSW 7.6 km/h 14 km/h 93 % 0 mm
12:03 -15.4 °C -15.9 °C 34476.3 hPa SW 6 km/h 11.1 km/h 93 % 0 mm
12:07 -15.4 °C -15.9 °C 34476.3 hPa SSW 2.9 km/h 6.9 km/h 93 % 0 mm
12:12 -15.3 °C -15.9 °C 34476.3 hPa SW 1.8 km/h 6.4 km/h 93 % 0 mm
12:18 -15.3 °C -15.9 °C 34476.3 hPa SW 1.8 km/h 6.4 km/h 93 % 0 mm
12:23 -15.3 °C -16 °C 34476.3 hPa WNW 1.3 km/h 6.4 km/h 92 % 0 mm
12:28 -15.4 °C -16.1 °C 34428.8 hPa WNW 1.6 km/h 6.4 km/h 92 % 0 mm
12:33 -15.4 °C -16.1 °C 34428.8 hPa NW 0.8 km/h 5.1 km/h 92 % 0 mm
12:38 -15.3 °C -16 °C 34428.8 hPa SW 0.8 km/h 7.6 km/h 92 % 0 mm
12:43 -15.3 °C -16 °C 34428.8 hPa SW 3.9 km/h 8.9 km/h 92 % 0 mm
12:48 -15.3 °C -15.9 °C 34428.8 hPa WSW 6.8 km/h 8.9 km/h 92 % 0 mm
12:53 -15.3 °C -16 °C 34428.8 hPa WSW 6.8 km/h 8.9 km/h 91 % 0 mm
12:58 -15.3 °C -16.1 °C 34428.8 hPa WSW 5.6 km/h 8.9 km/h 91 % 0 mm
13:03 -15.3 °C -16 °C 34428.8 hPa WSW 3.7 km/h 6.9 km/h 91 % 0 mm
13:08 -15.2 °C -15.9 °C 34428.8 hPa SW 3.4 km/h 10.3 km/h 91 % 0 mm
13:13 -15.3 °C -16 °C 34405.1 hPa SW 6 km/h 10.3 km/h 91 % 0 mm
13:18 -15.3 °C -16.1 °C 34405.1 hPa SW 6.9 km/h 9.8 km/h 90 % 0 mm
13:23 -15.3 °C -16.1 °C 34405.1 hPa SW 5.6 km/h 8.9 km/h 90 % 0 mm
13:28 -15.3 °C -16.1 °C 34405.1 hPa SSW 3.9 km/h 8.9 km/h 90 % 0 mm
13:33 -15.3 °C -16.1 °C 34405.1 hPa SSE 3.7 km/h 6.9 km/h 90 % 0 mm
13:38 -15.2 °C -16.2 °C 34405.1 hPa SE 3.1 km/h 6.9 km/h 89 % 0 mm
13:43 -15.2 °C -16.2 °C 34476.3 hPa South 1.3 km/h 5.6 km/h 89 % 0 mm
13:48 -15.2 °C -16.2 °C 34476.3 hPa SW 3.1 km/h 7.6 km/h 89 % 0 mm
13:53 -15.3 °C -16.3 °C 34476.3 hPa SW 3.7 km/h 7.6 km/h 88 % 0 mm
13:58 -15.3 °C -16.3 °C 34428.8 hPa South 2.3 km/h 8 km/h 88 % 0 mm
14:03 -15.3 °C -16.3 °C 34428.8 hPa SSW 1.6 km/h 8 km/h 88 % 0 mm
14:08 -15.3 °C -16.3 °C 34428.8 hPa SW 0.3 km/h 3.4 km/h 88 % 0 mm
14:13 -15.2 °C -16.3 °C 34405.1 hPa SSE 1 km/h 7.6 km/h 87 % 0 mm
14:18 -15.2 °C -16.3 °C 34405.1 hPa SSE 1.6 km/h 7.6 km/h 87 % 0 mm
14:23 -15.2 °C -16.3 °C 34405.1 hPa SSE 2.3 km/h 6.9 km/h 87 % 0 mm
14:28 -15.2 °C -16.3 °C 34428.8 hPa SSE 1.8 km/h 6.9 km/h 87 % 0 mm
14:33 -15.3 °C -16.4 °C 34428.8 hPa Calm   2.3 km/h 87 % 0 mm
14:38 -15.3 °C -16.5 °C 34428.8 hPa Calm   6.4 km/h 86 % 0 mm
14:43 -15.3 °C -16.5 °C 34428.8 hPa SSW 2.1 km/h 6.4 km/h 86 % 0 mm
14:48 -15.4 °C -16.6 °C 34428.8 hPa South 2.9 km/h 6.9 km/h 86 % 0 mm
14:53 -15.4 °C -16.6 °C 34428.8 hPa SE 1.6 km/h 6.9 km/h 86 % 0 mm
14:58 -15.4 °C -16.7 °C 34405.1 hPa SE 2.1 km/h 8 km/h 85 % 0 mm
15:00 -15.4 °C -16.7 °C 34405.1 hPa SE 3.1 km/h 8 km/h 85 % 0 mm
15:05 -15.4 °C -16.7 °C 34405.1 hPa SE 5 km/h 10.3 km/h 85 % 0 mm
15:10 -15.4 °C -16.7 °C 34405.1 hPa SE 4.7 km/h 10.3 km/h 85 % 0 mm
15:15 -15.5 °C -16.8 °C 34405.1 hPa SE 5.5 km/h 12.2 km/h 85 % 0 mm
15:20 -15.5 °C -16.8 °C 34405.1 hPa SE 4.3 km/h 12.2 km/h 85 % 0 mm
15:25 -15.6 °C -16.9 °C 34405.1 hPa SE 1 km/h 5.6 km/h 84 % 0 mm
15:35 -15.7 °C -17.1 °C 34405.1 hPa WSW 5.5 km/h 14 km/h 84 % 7.62 mm
15:40 -15.9 °C -17.3 °C 34405.1 hPa West 7.6 km/h 14 km/h 84 % 12.7 mm
15:45 -15.9 °C -17.3 °C 34405.1 hPa West 3.9 km/h 9.8 km/h 84 % 20.32 mm
15:49 -16.1 °C -17.6 °C 34405.1 hPa West 0.8 km/h 6.4 km/h 83 % 20.32 mm
15:54 -16.2 °C -17.6 °C 34405.1 hPa Calm     84 % 20.32 mm
15:59 -16.2 °C -17.6 °C 34405.1 hPa NE 1.6 km/h 8 km/h 84 % 25.4 mm
16:04 -16.3 °C -17.6 °C 34405.1 hPa NE 1.6 km/h 8 km/h 84 % 25.4 mm
16:09 -16.3 °C -17.7 °C 34405.1 hPa NE 1 km/h 5.1 km/h 84 % 33.02 mm
16:14 -16.4 °C -17.7 °C 34405.1 hPa NE 1.6 km/h 6.4 km/h 84 % 33.02 mm
16:19 -16.4 °C -17.8 °C 34405.1 hPa NE 1.3 km/h 6.4 km/h 84 % 33.02 mm
16:24 -16.4 °C -17.8 °C 34405.1 hPa NNE 0.8 km/h 5.6 km/h 84 % 33.02 mm
16:29 -16.5 °C -17.8 °C 34405.1 hPa Calm     84 % 33.02 mm
16:34 -16.5 °C -17.8 °C 34405.1 hPa Calm     84 % 25.4 mm
16:44 -16.5 °C -17.8 °C 34371.3 hPa East 0.3 km/h 4.2 km/h 84 % 12.7 mm
16:49 -16.5 °C -17.8 °C 34371.3 hPa East 0.3 km/h 4.2 km/h 84 % 12.7 mm
16:54 -16.6 °C -17.8 °C 34371.3 hPa Calm   2.3 km/h 85 % 12.7 mm
16:59 -16.6 °C -17.8 °C 34371.3 hPa Calm     85 % 12.7 mm
17:04 -16.6 °C -17.9 °C 34371.3 hPa Calm     85 % 12.7 mm
17:09 -16.6 °C -17.9 °C 34371.3 hPa Calm     85 % 7.62 mm
17:14 -16.7 °C -17.9 °C 34337.4 hPa Calm     85 % 7.62 mm
17:19 -16.7 °C -17.9 °C 34337.4 hPa SW 1 km/h 5.6 km/h 85 % 7.62 mm
17:24 -16.7 °C -17.8 °C 34337.4 hPa SW 2.1 km/h 5.6 km/h 86 % 7.62 mm
17:29 -16.7 °C -17.9 °C 34337.4 hPa SW 1.3 km/h 4.2 km/h 86 % 7.62 mm
17:34 -16.7 °C -17.9 °C 34337.4 hPa Calm     86 % 7.62 mm
17:39 -16.7 °C -17.9 °C 34337.4 hPa Calm     86 % 7.62 mm
17:44 -16.7 °C -17.8 °C 34371.3 hPa Calm     87 % 0 mm
17:45 -16.7 °C -17.8 °C 34371.3 hPa Calm     87 % 0 mm
17:50 -16.7 °C -17.8 °C 34371.3 hPa Calm     87 % 0 mm
17:55 -16.7 °C -17.8 °C 34371.3 hPa Calm     87 % 0 mm
18:00 -16.7 °C -17.8 °C 34371.3 hPa Calm     87 % 0 mm
18:10 -16.7 °C -17.8 °C 34371.3 hPa Calm     87 % 0 mm
18:15 -16.8 °C -17.8 °C 34371.3 hPa Calm     88 % 0 mm
18:20 -16.8 °C -17.8 °C 34371.3 hPa Calm     88 % 0 mm
18:25 -16.8 °C -17.8 °C 34371.3 hPa Calm     88 % 0 mm
18:30 -16.8 °C -17.8 °C 34337.4 hPa Calm     88 % 0 mm
18:35 -16.8 °C -17.8 °C 34337.4 hPa Calm     88 % 0 mm
18:40 -16.8 °C -17.8 °C 34337.4 hPa Calm     88 % 0 mm
18:45 -16.8 °C -17.8 °C 34371.3 hPa SSW 0.8 km/h 5.1 km/h 88 % 0 mm
18:50 -16.8 °C -17.7 °C 34371.3 hPa SSW 0.5 km/h 5.1 km/h 89 % 0 mm
18:55 -16.7 °C -17.6 °C 34371.3 hPa Calm     89 % 0 mm
19:00 -16.7 °C -17.6 °C 34337.4 hPa Calm     89 % 0 mm
19:05 -16.7 °C -17.6 °C 34337.4 hPa Calm     89 % 0 mm
19:10 -16.7 °C -17.6 °C 34337.4 hPa Calm   5.6 km/h 89 % 0 mm
19:15 -16.7 °C -17.6 °C 34337.4 hPa Calm   5.6 km/h 89 % 0 mm
19:20 -16.7 °C -17.6 °C 34337.4 hPa Calm   5.6 km/h 89 % 0 mm
19:25 -16.7 °C -17.6 °C 34337.4 hPa Calm     89 % 0 mm
19:30 -16.7 °C -17.6 °C 34337.4 hPa Calm     89 % 0 mm
19:35 -16.7 °C -17.6 °C 34337.4 hPa Calm     89 % 0 mm
19:40 -16.7 °C -17.4 °C 34337.4 hPa Calm     90 % 0 mm
19:45 -16.7 °C -17.4 °C 34303.6 hPa Calm     90 % 0 mm
19:50 -16.7 °C -17.4 °C 34303.6 hPa Calm     90 % 0 mm
19:55 -16.7 °C -17.4 °C 34303.6 hPa Calm     90 % 0 mm
20:00 -16.7 °C -17.4 °C 34303.6 hPa Calm     90 % 0 mm
20:05 -16.7 °C -17.4 °C 34303.6 hPa Calm     90 % 0 mm
20:10 -16.7 °C -17.4 °C 34303.6 hPa Calm     90 % 0 mm
20:16 -16.7 °C -17.4 °C 34269.7 hPa Calm     91 % 0 mm
20:21 -16.7 °C -17.4 °C 34269.7 hPa Calm   2.3 km/h 91 % 0 mm
20:26 -16.7 °C -17.4 °C 34269.7 hPa West 0.3 km/h 6.4 km/h 91 % 0 mm
20:31 -16.7 °C -17.4 °C 34303.6 hPa West 0.3 km/h 6.4 km/h 91 % 0 mm
20:36 -16.7 °C -17.4 °C 34303.6 hPa Calm     91 % 0 mm
20:41 -16.7 °C -17.4 °C 34303.6 hPa Calm     91 % 0 mm
20:46 -16.7 °C -17.4 °C 34303.6 hPa Calm     91 % 0 mm
20:51 -16.7 °C -17.4 °C 34303.6 hPa Calm     91 % 0 mm
20:56 -16.7 °C -17.4 °C 34303.6 hPa Calm     91 % 0 mm
21:01 -16.7 °C -17.3 °C 34303.6 hPa SW 0.8 km/h 6.9 km/h 92 % 0 mm
21:06 -16.7 °C -17.3 °C 34303.6 hPa WSW 3.4 km/h 8 km/h 92 % 0 mm
21:11 -16.7 °C -17.3 °C 34303.6 hPa WSW 2.9 km/h 8 km/h 92 % 0 mm
21:16 -16.7 °C -17.3 °C 34303.6 hPa Calm   2.9 km/h 92 % 0 mm
21:21 -16.7 °C -17.3 °C 34303.6 hPa Calm     92 % 0 mm
21:26 -16.7 °C -17.3 °C 34303.6 hPa WSW 1 km/h 6.4 km/h 92 % 0 mm
21:31 -16.7 °C -17.4 °C 34269.7 hPa SW 3.7 km/h 6.9 km/h 92 % 0 mm
21:36 -16.7 °C -17.4 °C 34269.7 hPa SW 5.1 km/h 7.6 km/h 92 % 0 mm
21:41 -16.7 °C -17.3 °C 34269.7 hPa WSW 2.3 km/h 7.6 km/h 93 % 0 mm
21:46 -16.7 °C -17.3 °C 34269.7 hPa South 1.3 km/h 6.4 km/h 93 % 0 mm
21:51 -16.7 °C -17.3 °C 34269.7 hPa South 2.6 km/h 6.9 km/h 93 % 0 mm
21:56 -16.7 °C -17.3 °C 34269.7 hPa SSW 1.6 km/h 6.9 km/h 93 % 0 mm
22:01 -16.7 °C -17.3 °C 34235.8 hPa South 0.5 km/h 5.1 km/h 93 % 0 mm
22:06 -16.8 °C -17.3 °C 34235.8 hPa North 0.3 km/h   93 % 0 mm
22:11 -16.8 °C -17.3 °C 34235.8 hPa Calm     93 % 0 mm
22:16 -16.8 °C -17.4 °C 34235.8 hPa Calm   4.2 km/h 93 % 0 mm
22:21 -16.8 °C -17.4 °C 34235.8 hPa Calm   4.2 km/h 93 % 0 mm
22:26 -16.8 °C -17.4 °C 34235.8 hPa Calm     93 % 0 mm
22:31 -16.8 °C -17.4 °C 34235.8 hPa Calm     93 % 0 mm
22:36 -16.8 °C -17.4 °C 34235.8 hPa SSW 0.8 km/h 6.4 km/h 93 % 0 mm
22:41 -16.8 °C -17.4 °C 34235.8 hPa SSW 2.3 km/h 6.4 km/h 93 % 0 mm
22:46 -16.8 °C -17.4 °C 34269.7 hPa SSW 2.1 km/h 6.4 km/h 93 % 0 mm
22:51 -16.8 °C -17.4 °C 34269.7 hPa SSW 0.8 km/h 5.6 km/h 93 % 0 mm
22:56 -16.8 °C -17.4 °C 34269.7 hPa Calm     93 % 0 mm
23:01 -16.9 °C -17.4 °C 34235.8 hPa Calm   4.2 km/h 93 % 0 mm
23:06 -16.9 °C -17.4 °C 34235.8 hPa SW 0.8 km/h 5.6 km/h 93 % 0 mm
23:11 -16.9 °C -17.5 °C 34235.8 hPa SSW 1.8 km/h 6.9 km/h 93 % 0 mm
23:16 -16.9 °C -17.5 °C 34235.8 hPa SSW 3.4 km/h 6.9 km/h 93 % 0 mm
23:26 -17 °C -17.6 °C 34235.8 hPa SSW 2.1 km/h 6.9 km/h 93 % 0 mm
23:31 -17.1 °C -17.6 °C 34198.6 hPa SSW 1.8 km/h 6.9 km/h 93 % 0 mm
23:36 -17.1 °C -17.7 °C 34198.6 hPa South 2.3 km/h 7.6 km/h 93 % 0 mm
23:41 -17.2 °C -17.7 °C 34198.6 hPa South 1.8 km/h 7.6 km/h 93 % 0 mm
23:46 -17.2 °C -17.8 °C 34164.7 hPa North 0.3 km/h   93 % 0 mm
23:51 -17.2 °C -17.8 °C 34164.7 hPa Calm     93 % 0 mm
23:56 -17.3 °C -17.9 °C 34164.7 hPa Calm     93 % 0 mm
Vremenska postaja Senovo
Podatki zbrani iz Weather Underground - 3 mb

Script developed by  Jim McMurry - jmcmurry@mwt.net Adapted for the template by  Wim van der Kuil - Leuven-Template.eu

Vremenski podatki so objavljeni na:

European Weather Network

WeatherCloud

Weather Underground

AWEKAS

HAMweather, WeatherForYou, PWS Weather

MapView

Geostik

Slovenia weather network

Oprema, ki se uporablja:

Vremenski program
Cumulus

Vremenski server
Asus

Cumulus

Asus